sensor_id;sensor_type;location;lat;lon;timestamp;P1;durP1;ratioP1;P2;durP2;ratioP2
66012;SDS011;52783;50.502;8.190;2024-02-23T00:01:25;3.92;;;1.17;;
66012;SDS011;52783;50.502;8.190;2024-02-23T00:03:51;1.63;;;0.82;;
66012;SDS011;52783;50.502;8.190;2024-02-23T00:06:17;1.05;;;0.80;;
66012;SDS011;52783;50.502;8.190;2024-02-23T00:08:42;5.22;;;1.55;;
66012;SDS011;52783;50.502;8.190;2024-02-23T00:11:08;5.93;;;1.25;;
66012;SDS011;52783;50.502;8.190;2024-02-23T00:13:34;2.00;;;1.05;;
66012;SDS011;52783;50.502;8.190;2024-02-23T00:16:00;3.17;;;0.93;;
66012;SDS011;52783;50.502;8.190;2024-02-23T00:18:26;2.90;;;1.00;;
66012;SDS011;52783;50.502;8.190;2024-02-23T00:20:51;2.88;;;0.98;;
66012;SDS011;52783;50.502;8.190;2024-02-23T00:23:17;3.00;;;1.23;;
66012;SDS011;52783;50.502;8.190;2024-02-23T00:25:44;4.55;;;1.13;;
66012;SDS011;52783;50.502;8.190;2024-02-23T00:28:09;4.80;;;1.33;;
66012;SDS011;52783;50.502;8.190;2024-02-23T00:30:35;4.82;;;1.05;;
66012;SDS011;52783;50.502;8.190;2024-02-23T00:33:00;8.90;;;1.67;;
66012;SDS011;52783;50.502;8.190;2024-02-23T00:35:26;2.85;;;0.90;;
66012;SDS011;52783;50.502;8.190;2024-02-23T00:37:52;4.95;;;1.20;;
66012;SDS011;52783;50.502;8.190;2024-02-23T00:40:17;1.98;;;0.85;;
66012;SDS011;52783;50.502;8.190;2024-02-23T00:42:42;0.80;;;0.80;;
66012;SDS011;52783;50.502;8.190;2024-02-23T00:45:08;1.75;;;0.80;;
66012;SDS011;52783;50.502;8.190;2024-02-23T00:47:34;4.53;;;1.05;;
66012;SDS011;52783;50.502;8.190;2024-02-23T00:50:00;1.35;;;0.68;;
66012;SDS011;52783;50.502;8.190;2024-02-23T00:52:26;1.63;;;0.90;;
66012;SDS011;52783;50.502;8.190;2024-02-23T00:54:52;1.67;;;1.00;;
66012;SDS011;52783;50.502;8.190;2024-02-23T00:57:18;2.75;;;0.77;;
66012;SDS011;52783;50.502;8.190;2024-02-23T00:59:50;2.58;;;0.90;;
66012;SDS011;52783;50.502;8.190;2024-02-23T01:02:16;1.95;;;0.70;;
66012;SDS011;52783;50.502;8.190;2024-02-23T01:04:42;2.45;;;0.70;;
66012;SDS011;52783;50.502;8.190;2024-02-23T01:07:07;2.20;;;0.55;;
66012;SDS011;52783;50.502;8.190;2024-02-23T01:09:33;1.50;;;0.50;;
66012;SDS011;52783;50.502;8.190;2024-02-23T01:11:59;0.45;;;0.45;;
66012;SDS011;52783;50.502;8.190;2024-02-23T01:14:25;3.40;;;0.80;;
66012;SDS011;52783;50.502;8.190;2024-02-23T01:16:50;2.10;;;0.70;;
66012;SDS011;52783;50.502;8.190;2024-02-23T01:19:15;1.55;;;0.55;;
66012;SDS011;52783;50.502;8.190;2024-02-23T01:21:41;0.65;;;0.65;;
66012;SDS011;52783;50.502;8.190;2024-02-23T01:24:07;1.60;;;0.50;;
66012;SDS011;52783;50.502;8.190;2024-02-23T01:26:32;1.50;;;0.75;;
66012;SDS011;52783;50.502;8.190;2024-02-23T01:28:58;2.50;;;0.60;;
66012;SDS011;52783;50.502;8.190;2024-02-23T01:31:23;2.85;;;0.70;;
66012;SDS011;52783;50.502;8.190;2024-02-23T01:33:49;0.88;;;0.50;;
66012;SDS011;52783;50.502;8.190;2024-02-23T01:36:15;1.02;;;0.60;;
66012;SDS011;52783;50.502;8.190;2024-02-23T01:38:41;2.08;;;0.73;;
66012;SDS011;52783;50.502;8.190;2024-02-23T01:41:08;1.90;;;0.98;;
66012;SDS011;52783;50.502;8.190;2024-02-23T01:43:33;1.08;;;0.73;;
66012;SDS011;52783;50.502;8.190;2024-02-23T01:45:59;1.45;;;0.70;;
66012;SDS011;52783;50.502;8.190;2024-02-23T01:48:24;6.10;;;0.70;;
66012;SDS011;52783;50.502;8.190;2024-02-23T01:50:50;0.50;;;0.50;;
66012;SDS011;52783;50.502;8.190;2024-02-23T01:53:16;2.53;;;0.57;;
66012;SDS011;52783;50.502;8.190;2024-02-23T01:55:45;1.35;;;0.80;;
66012;SDS011;52783;50.502;8.190;2024-02-23T01:58:12;0.93;;;0.63;;
66012;SDS011;52783;50.502;8.190;2024-02-23T02:00:38;1.33;;;0.73;;
66012;SDS011;52783;50.502;8.190;2024-02-23T02:03:03;0.47;;;0.47;;
66012;SDS011;52783;50.502;8.190;2024-02-23T02:05:29;0.82;;;0.82;;
66012;SDS011;52783;50.502;8.190;2024-02-23T02:07:55;2.30;;;0.65;;
66012;SDS011;52783;50.502;8.190;2024-02-23T02:10:24;1.77;;;0.70;;
66012;SDS011;52783;50.502;8.190;2024-02-23T02:12:50;0.50;;;0.50;;
66012;SDS011;52783;50.502;8.190;2024-02-23T02:15:16;2.72;;;1.02;;
66012;SDS011;52783;50.502;8.190;2024-02-23T02:17:42;1.75;;;0.68;;
66012;SDS011;52783;50.502;8.190;2024-02-23T02:20:11;1.83;;;0.77;;
66012;SDS011;52783;50.502;8.190;2024-02-23T02:22:38;0.57;;;0.57;;
66012;SDS011;52783;50.502;8.190;2024-02-23T02:25:04;1.90;;;1.45;;
66012;SDS011;52783;50.502;8.190;2024-02-23T02:27:30;1.63;;;0.77;;
66012;SDS011;52783;50.502;8.190;2024-02-23T02:29:55;2.08;;;0.90;;
66012;SDS011;52783;50.502;8.190;2024-02-23T02:32:21;2.15;;;0.63;;
66012;SDS011;52783;50.502;8.190;2024-02-23T02:34:46;6.65;;;1.02;;
66012;SDS011;52783;50.502;8.190;2024-02-23T02:37:12;2.05;;;0.90;;
66012;SDS011;52783;50.502;8.190;2024-02-23T02:39:37;0.40;;;0.40;;
66012;SDS011;52783;50.502;8.190;2024-02-23T02:42:03;1.48;;;0.70;;
66012;SDS011;52783;50.502;8.190;2024-02-23T02:44:28;3.78;;;0.90;;
66012;SDS011;52783;50.502;8.190;2024-02-23T02:46:56;0.55;;;0.55;;
66012;SDS011;52783;50.502;8.190;2024-02-23T02:49:22;4.63;;;0.90;;
66012;SDS011;52783;50.502;8.190;2024-02-23T02:51:47;2.40;;;0.70;;
66012;SDS011;52783;50.502;8.190;2024-02-23T02:54:13;1.20;;;0.63;;
66012;SDS011;52783;50.502;8.190;2024-02-23T02:56:42;3.17;;;1.02;;
66012;SDS011;52783;50.502;8.190;2024-02-23T02:59:08;3.50;;;1.13;;
66012;SDS011;52783;50.502;8.190;2024-02-23T03:01:35;2.97;;;0.65;;
66012;SDS011;52783;50.502;8.190;2024-02-23T03:04:00;5.60;;;0.95;;
66012;SDS011;52783;50.502;8.190;2024-02-23T03:06:26;2.38;;;1.00;;
66012;SDS011;52783;50.502;8.190;2024-02-23T03:08:51;5.28;;;0.77;;
66012;SDS011;52783;50.502;8.190;2024-02-23T03:11:17;0.75;;;0.73;;
66012;SDS011;52783;50.502;8.190;2024-02-23T03:13:42;1.50;;;0.85;;
66012;SDS011;52783;50.502;8.190;2024-02-23T03:16:17;1.73;;;0.70;;
66012;SDS011;52783;50.502;8.190;2024-02-23T03:18:43;3.97;;;0.85;;
66012;SDS011;52783;50.502;8.190;2024-02-23T03:21:09;3.45;;;0.70;;
66012;SDS011;52783;50.502;8.190;2024-02-23T03:23:37;5.38;;;1.08;;
66012;SDS011;52783;50.502;8.190;2024-02-23T03:26:03;3.20;;;0.90;;
66012;SDS011;52783;50.502;8.190;2024-02-23T03:28:28;1.98;;;1.33;;
66012;SDS011;52783;50.502;8.190;2024-02-23T03:30:54;2.65;;;1.00;;
66012;SDS011;52783;50.502;8.190;2024-02-23T03:33:20;2.17;;;1.15;;
66012;SDS011;52783;50.502;8.190;2024-02-23T03:35:45;2.17;;;0.88;;
66012;SDS011;52783;50.502;8.190;2024-02-23T03:38:11;4.07;;;1.17;;
66012;SDS011;52783;50.502;8.190;2024-02-23T03:40:36;2.55;;;1.27;;
66012;SDS011;52783;50.502;8.190;2024-02-23T03:43:02;2.55;;;1.25;;
66012;SDS011;52783;50.502;8.190;2024-02-23T03:45:28;10.45;;;3.38;;
66012;SDS011;52783;50.502;8.190;2024-02-23T03:47:53;8.55;;;3.67;;
66012;SDS011;52783;50.502;8.190;2024-02-23T03:50:19;7.28;;;2.83;;
66012;SDS011;52783;50.502;8.190;2024-02-23T03:52:45;6.75;;;2.95;;
66012;SDS011;52783;50.502;8.190;2024-02-23T03:55:10;3.35;;;2.30;;
66012;SDS011;52783;50.502;8.190;2024-02-23T03:57:36;5.13;;;2.50;;
66012;SDS011;52783;50.502;8.190;2024-02-23T04:00:02;6.10;;;2.05;;
66012;SDS011;52783;50.502;8.190;2024-02-23T04:02:28;3.55;;;1.27;;
66012;SDS011;52783;50.502;8.190;2024-02-23T04:04:54;3.80;;;1.95;;
66012;SDS011;52783;50.502;8.190;2024-02-23T04:07:19;7.50;;;3.25;;
66012;SDS011;52783;50.502;8.190;2024-02-23T04:09:45;11.43;;;2.00;;
66012;SDS011;52783;50.502;8.190;2024-02-23T04:12:17;3.17;;;1.25;;
66012;SDS011;52783;50.502;8.190;2024-02-23T04:14:44;7.03;;;1.90;;
66012;SDS011;52783;50.502;8.190;2024-02-23T04:17:09;2.97;;;1.45;;
66012;SDS011;52783;50.502;8.190;2024-02-23T04:19:36;2.50;;;0.88;;
66012;SDS011;52783;50.502;8.190;2024-02-23T04:22:02;1.50;;;0.95;;
66012;SDS011;52783;50.502;8.190;2024-02-23T04:24:28;3.28;;;1.05;;
66012;SDS011;52783;50.502;8.190;2024-02-23T04:26:53;1.75;;;1.02;;
66012;SDS011;52783;50.502;8.190;2024-02-23T04:29:19;2.47;;;1.20;;
66012;SDS011;52783;50.502;8.190;2024-02-23T04:31:44;4.25;;;1.40;;
66012;SDS011;52783;50.502;8.190;2024-02-23T04:34:10;4.57;;;1.17;;
66012;SDS011;52783;50.502;8.190;2024-02-23T04:36:35;1.85;;;1.02;;
66012;SDS011;52783;50.502;8.190;2024-02-23T04:39:01;4.90;;;1.55;;
66012;SDS011;52783;50.502;8.190;2024-02-23T04:41:27;5.00;;;1.45;;
66012;SDS011;52783;50.502;8.190;2024-02-23T04:43:53;3.80;;;1.55;;
66012;SDS011;52783;50.502;8.190;2024-02-23T04:46:24;1.92;;;1.20;;
66012;SDS011;52783;50.502;8.190;2024-02-23T04:48:50;3.03;;;1.65;;
66012;SDS011;52783;50.502;8.190;2024-02-23T04:51:16;7.35;;;2.00;;
66012;SDS011;52783;50.502;8.190;2024-02-23T04:53:41;3.20;;;1.38;;
66012;SDS011;52783;50.502;8.190;2024-02-23T04:56:07;5.03;;;1.42;;
66012;SDS011;52783;50.502;8.190;2024-02-23T04:58:33;7.22;;;1.42;;
66012;SDS011;52783;50.502;8.190;2024-02-23T05:00:58;5.40;;;1.50;;
66012;SDS011;52783;50.502;8.190;2024-02-23T05:03:24;6.25;;;1.85;;
66012;SDS011;52783;50.502;8.190;2024-02-23T05:05:49;2.10;;;0.93;;
66012;SDS011;52783;50.502;8.190;2024-02-23T05:08:18;4.43;;;1.42;;
66012;SDS011;52783;50.502;8.190;2024-02-23T05:10:45;4.47;;;1.13;;
66012;SDS011;52783;50.502;8.190;2024-02-23T05:13:11;2.95;;;0.80;;
66012;SDS011;52783;50.502;8.190;2024-02-23T05:15:37;5.18;;;1.33;;
66012;SDS011;52783;50.502;8.190;2024-02-23T05:18:02;4.28;;;1.42;;
66012;SDS011;52783;50.502;8.190;2024-02-23T05:20:28;3.47;;;1.10;;
66012;SDS011;52783;50.502;8.190;2024-02-23T05:22:53;4.32;;;1.58;;
66012;SDS011;52783;50.502;8.190;2024-02-23T05:25:19;4.95;;;1.48;;
66012;SDS011;52783;50.502;8.190;2024-02-23T05:27:44;6.05;;;1.38;;
66012;SDS011;52783;50.502;8.190;2024-02-23T05:30:10;6.53;;;1.40;;
66012;SDS011;52783;50.502;8.190;2024-02-23T05:32:36;4.63;;;1.60;;
66012;SDS011;52783;50.502;8.190;2024-02-23T05:35:02;12.68;;;1.83;;
66012;SDS011;52783;50.502;8.190;2024-02-23T05:37:28;3.17;;;1.08;;
66012;SDS011;52783;50.502;8.190;2024-02-23T05:39:54;7.32;;;1.48;;
66012;SDS011;52783;50.502;8.190;2024-02-23T05:42:19;8.35;;;2.03;;
66012;SDS011;52783;50.502;8.190;2024-02-23T05:44:45;2.55;;;1.63;;
66012;SDS011;52783;50.502;8.190;2024-02-23T05:47:11;3.78;;;1.40;;
66012;SDS011;52783;50.502;8.190;2024-02-23T05:49:38;2.53;;;1.13;;
66012;SDS011;52783;50.502;8.190;2024-02-23T05:52:04;3.70;;;1.35;;
66012;SDS011;52783;50.502;8.190;2024-02-23T05:54:30;6.47;;;1.52;;
66012;SDS011;52783;50.502;8.190;2024-02-23T05:56:55;3.83;;;1.67;;
66012;SDS011;52783;50.502;8.190;2024-02-23T05:59:21;7.03;;;1.98;;
66012;SDS011;52783;50.502;8.190;2024-02-23T06:01:46;3.10;;;1.23;;
66012;SDS011;52783;50.502;8.190;2024-02-23T06:04:12;2.53;;;1.30;;
66012;SDS011;52783;50.502;8.190;2024-02-23T06:06:40;4.25;;;1.38;;
66012;SDS011;52783;50.502;8.190;2024-02-23T06:09:07;4.75;;;1.58;;
66012;SDS011;52783;50.502;8.190;2024-02-23T06:11:32;7.70;;;1.25;;
66012;SDS011;52783;50.502;8.190;2024-02-23T06:13:58;6.10;;;1.30;;
66012;SDS011;52783;50.502;8.190;2024-02-23T06:16:23;6.55;;;1.63;;
66012;SDS011;52783;50.502;8.190;2024-02-23T06:18:49;3.15;;;1.20;;
66012;SDS011;52783;50.502;8.190;2024-02-23T06:21:15;4.75;;;1.40;;
66012;SDS011;52783;50.502;8.190;2024-02-23T06:23:42;5.15;;;2.15;;
66012;SDS011;52783;50.502;8.190;2024-02-23T06:26:09;4.15;;;1.70;;
66012;SDS011;52783;50.502;8.190;2024-02-23T06:28:35;9.02;;;2.08;;
66012;SDS011;52783;50.502;8.190;2024-02-23T06:31:02;9.10;;;1.80;;
66012;SDS011;52783;50.502;8.190;2024-02-23T06:33:28;2.83;;;1.85;;
66012;SDS011;52783;50.502;8.190;2024-02-23T06:35:55;4.40;;;2.30;;
66012;SDS011;52783;50.502;8.190;2024-02-23T06:38:21;6.45;;;1.90;;
66012;SDS011;52783;50.502;8.190;2024-02-23T06:40:46;1.60;;;1.35;;
66012;SDS011;52783;50.502;8.190;2024-02-23T06:43:12;5.32;;;1.80;;
66012;SDS011;52783;50.502;8.190;2024-02-23T06:45:38;5.45;;;1.77;;
66012;SDS011;52783;50.502;8.190;2024-02-23T06:48:03;3.35;;;1.88;;
66012;SDS011;52783;50.502;8.190;2024-02-23T06:50:29;4.80;;;1.48;;
66012;SDS011;52783;50.502;8.190;2024-02-23T06:52:54;9.68;;;2.05;;
66012;SDS011;52783;50.502;8.190;2024-02-23T06:55:20;5.70;;;1.77;;
66012;SDS011;52783;50.502;8.190;2024-02-23T06:57:46;6.45;;;2.03;;
66012;SDS011;52783;50.502;8.190;2024-02-23T07:00:12;1.50;;;1.35;;
66012;SDS011;52783;50.502;8.190;2024-02-23T07:02:38;4.28;;;1.40;;
66012;SDS011;52783;50.502;8.190;2024-02-23T07:05:03;4.03;;;1.15;;
66012;SDS011;52783;50.502;8.190;2024-02-23T07:07:29;5.57;;;1.75;;
66012;SDS011;52783;50.502;8.190;2024-02-23T07:09:56;5.05;;;1.17;;
66012;SDS011;52783;50.502;8.190;2024-02-23T07:12:22;3.90;;;1.50;;
66012;SDS011;52783;50.502;8.190;2024-02-23T07:14:48;5.43;;;1.48;;
66012;SDS011;52783;50.502;8.190;2024-02-23T07:17:17;4.28;;;1.60;;
66012;SDS011;52783;50.502;8.190;2024-02-23T07:19:42;5.00;;;1.65;;
66012;SDS011;52783;50.502;8.190;2024-02-23T07:22:08;7.93;;;1.50;;
66012;SDS011;52783;50.502;8.190;2024-02-23T07:24:33;2.70;;;1.08;;
66012;SDS011;52783;50.502;8.190;2024-02-23T07:26:59;4.57;;;1.77;;
66012;SDS011;52783;50.502;8.190;2024-02-23T07:29:24;4.03;;;1.10;;
66012;SDS011;52783;50.502;8.190;2024-02-23T07:31:50;6.55;;;2.97;;
66012;SDS011;52783;50.502;8.190;2024-02-23T07:34:15;1.52;;;1.10;;
66012;SDS011;52783;50.502;8.190;2024-02-23T07:36:41;4.63;;;1.50;;
66012;SDS011;52783;50.502;8.190;2024-02-23T07:39:08;7.97;;;1.42;;
66012;SDS011;52783;50.502;8.190;2024-02-23T07:41:33;5.82;;;1.30;;
66012;SDS011;52783;50.502;8.190;2024-02-23T07:43:59;6.68;;;1.30;;
66012;SDS011;52783;50.502;8.190;2024-02-23T07:46:24;6.28;;;1.30;;
66012;SDS011;52783;50.502;8.190;2024-02-23T07:48:50;6.28;;;1.83;;
66012;SDS011;52783;50.502;8.190;2024-02-23T07:51:15;3.08;;;1.40;;
66012;SDS011;52783;50.502;8.190;2024-02-23T07:53:41;8.15;;;1.40;;
66012;SDS011;52783;50.502;8.190;2024-02-23T07:56:09;7.88;;;1.63;;
66012;SDS011;52783;50.502;8.190;2024-02-23T07:58:35;3.30;;;1.30;;
66012;SDS011;52783;50.502;8.190;2024-02-23T08:01:00;5.53;;;1.60;;
66012;SDS011;52783;50.502;8.190;2024-02-23T08:03:26;3.90;;;1.50;;
66012;SDS011;52783;50.502;8.190;2024-02-23T08:05:51;5.53;;;2.00;;
66012;SDS011;52783;50.502;8.190;2024-02-23T08:08:17;7.35;;;2.63;;
66012;SDS011;52783;50.502;8.190;2024-02-23T08:10:43;5.65;;;1.85;;
66012;SDS011;52783;50.502;8.190;2024-02-23T08:13:09;8.23;;;1.80;;
66012;SDS011;52783;50.502;8.190;2024-02-23T08:15:35;8.90;;;1.25;;
66012;SDS011;52783;50.502;8.190;2024-02-23T08:18:01;3.90;;;1.63;;
66012;SDS011;52783;50.502;8.190;2024-02-23T08:20:26;2.05;;;1.05;;
66012;SDS011;52783;50.502;8.190;2024-02-23T08:22:52;5.78;;;1.58;;
66012;SDS011;52783;50.502;8.190;2024-02-23T08:25:17;6.30;;;1.08;;
66012;SDS011;52783;50.502;8.190;2024-02-23T08:27:43;5.45;;;1.25;;
66012;SDS011;52783;50.502;8.190;2024-02-23T08:30:09;4.80;;;1.75;;
66012;SDS011;52783;50.502;8.190;2024-02-23T08:32:36;6.47;;;1.60;;
66012;SDS011;52783;50.502;8.190;2024-02-23T08:35:01;6.70;;;1.83;;
66012;SDS011;52783;50.502;8.190;2024-02-23T08:37:27;4.30;;;1.50;;
66012;SDS011;52783;50.502;8.190;2024-02-23T08:39:53;7.40;;;1.80;;
66012;SDS011;52783;50.502;8.190;2024-02-23T08:42:19;8.95;;;2.00;;
66012;SDS011;52783;50.502;8.190;2024-02-23T08:44:44;3.92;;;1.58;;
66012;SDS011;52783;50.502;8.190;2024-02-23T08:47:10;5.35;;;1.60;;
66012;SDS011;52783;50.502;8.190;2024-02-23T08:49:35;3.67;;;1.33;;
66012;SDS011;52783;50.502;8.190;2024-02-23T08:52:01;6.68;;;1.70;;
66012;SDS011;52783;50.502;8.190;2024-02-23T08:54:27;2.63;;;1.55;;
66012;SDS011;52783;50.502;8.190;2024-02-23T08:56:53;3.10;;;1.38;;
66012;SDS011;52783;50.502;8.190;2024-02-23T08:59:18;5.68;;;1.67;;
66012;SDS011;52783;50.502;8.190;2024-02-23T09:01:44;6.28;;;1.83;;
66012;SDS011;52783;50.502;8.190;2024-02-23T09:04:11;9.10;;;1.98;;
66012;SDS011;52783;50.502;8.190;2024-02-23T09:06:37;6.95;;;1.45;;
66012;SDS011;52783;50.502;8.190;2024-02-23T09:09:03;6.90;;;2.42;;
66012;SDS011;52783;50.502;8.190;2024-02-23T09:11:29;3.40;;;1.67;;
66012;SDS011;52783;50.502;8.190;2024-02-23T09:13:55;14.68;;;2.38;;
66012;SDS011;52783;50.502;8.190;2024-02-23T09:16:20;5.43;;;1.83;;
66012;SDS011;52783;50.502;8.190;2024-02-23T09:18:48;8.15;;;2.15;;
66012;SDS011;52783;50.502;8.190;2024-02-23T09:21:14;4.20;;;1.60;;
66012;SDS011;52783;50.502;8.190;2024-02-23T09:23:39;8.98;;;2.55;;
66012;SDS011;52783;50.502;8.190;2024-02-23T09:26:08;7.25;;;1.90;;
66012;SDS011;52783;50.502;8.190;2024-02-23T09:28:35;2.33;;;1.50;;
66012;SDS011;52783;50.502;8.190;2024-02-23T09:31:01;3.25;;;1.50;;
66012;SDS011;52783;50.502;8.190;2024-02-23T09:33:28;4.97;;;1.58;;
66012;SDS011;52783;50.502;8.190;2024-02-23T09:35:53;4.35;;;1.67;;
66012;SDS011;52783;50.502;8.190;2024-02-23T09:38:19;8.75;;;2.00;;
66012;SDS011;52783;50.502;8.190;2024-02-23T09:40:45;10.77;;;2.47;;
66012;SDS011;52783;50.502;8.190;2024-02-23T09:43:11;9.73;;;2.20;;
66012;SDS011;52783;50.502;8.190;2024-02-23T09:45:38;7.32;;;1.58;;
66012;SDS011;52783;50.502;8.190;2024-02-23T09:48:03;3.97;;;1.73;;
66012;SDS011;52783;50.502;8.190;2024-02-23T09:50:31;4.72;;;1.50;;
66012;SDS011;52783;50.502;8.190;2024-02-23T09:52:58;4.38;;;1.95;;
66012;SDS011;52783;50.502;8.190;2024-02-23T09:55:24;9.05;;;2.45;;
66012;SDS011;52783;50.502;8.190;2024-02-23T09:57:51;5.55;;;1.67;;
66012;SDS011;52783;50.502;8.190;2024-02-23T10:00:21;10.68;;;1.85;;
66012;SDS011;52783;50.502;8.190;2024-02-23T10:02:48;5.35;;;1.70;;
66012;SDS011;52783;50.502;8.190;2024-02-23T10:05:15;6.43;;;2.08;;
66012;SDS011;52783;50.502;8.190;2024-02-23T10:07:42;10.20;;;2.03;;
66012;SDS011;52783;50.502;8.190;2024-02-23T10:10:09;4.05;;;1.48;;
66012;SDS011;52783;50.502;8.190;2024-02-23T10:12:36;5.32;;;1.70;;
66012;SDS011;52783;50.502;8.190;2024-02-23T10:15:02;8.60;;;1.80;;
66012;SDS011;52783;50.502;8.190;2024-02-23T10:17:31;9.15;;;2.03;;
66012;SDS011;52783;50.502;8.190;2024-02-23T10:19:57;2.22;;;1.42;;
66012;SDS011;52783;50.502;8.190;2024-02-23T10:22:23;4.00;;;1.95;;
66012;SDS011;52783;50.502;8.190;2024-02-23T10:24:50;7.35;;;1.70;;
66012;SDS011;52783;50.502;8.190;2024-02-23T10:27:16;5.93;;;1.63;;
66012;SDS011;52783;50.502;8.190;2024-02-23T10:29:42;4.80;;;1.85;;
66012;SDS011;52783;50.502;8.190;2024-02-23T10:32:08;6.30;;;1.70;;
66012;SDS011;52783;50.502;8.190;2024-02-23T10:34:37;4.90;;;1.50;;
66012;SDS011;52783;50.502;8.190;2024-02-23T10:37:05;7.07;;;1.52;;
66012;SDS011;52783;50.502;8.190;2024-02-23T10:39:31;3.33;;;1.50;;
66012;SDS011;52783;50.502;8.190;2024-02-23T10:42:02;3.45;;;1.40;;
66012;SDS011;52783;50.502;8.190;2024-02-23T10:44:29;4.20;;;1.70;;
66012;SDS011;52783;50.502;8.190;2024-02-23T10:46:55;5.72;;;1.90;;
66012;SDS011;52783;50.502;8.190;2024-02-23T10:49:23;5.18;;;1.58;;
66012;SDS011;52783;50.502;8.190;2024-02-23T10:51:52;10.15;;;3.00;;
66012;SDS011;52783;50.502;8.190;2024-02-23T10:54:21;3.63;;;1.55;;
66012;SDS011;52783;50.502;8.190;2024-02-23T10:56:48;5.97;;;1.73;;
66012;SDS011;52783;50.502;8.190;2024-02-23T10:59:15;4.40;;;2.05;;
66012;SDS011;52783;50.502;8.190;2024-02-23T11:01:43;5.30;;;1.73;;
66012;SDS011;52783;50.502;8.190;2024-02-23T11:04:14;5.72;;;1.58;;
66012;SDS011;52783;50.502;8.190;2024-02-23T11:06:41;4.00;;;1.63;;
66012;SDS011;52783;50.502;8.190;2024-02-23T11:09:11;3.25;;;1.48;;
66012;SDS011;52783;50.502;8.190;2024-02-23T11:11:38;4.53;;;1.23;;
66012;SDS011;52783;50.502;8.190;2024-02-23T11:14:06;7.18;;;1.40;;
66012;SDS011;52783;50.502;8.190;2024-02-23T11:16:33;3.45;;;1.10;;
66012;SDS011;52783;50.502;8.190;2024-02-23T11:19:04;11.13;;;2.00;;
66012;SDS011;52783;50.502;8.190;2024-02-23T11:21:33;7.18;;;1.75;;
66012;SDS011;52783;50.502;8.190;2024-02-23T11:24:02;5.35;;;2.08;;
66012;SDS011;52783;50.502;8.190;2024-02-23T11:26:29;4.82;;;2.00;;
66012;SDS011;52783;50.502;8.190;2024-02-23T11:28:55;4.65;;;2.40;;
66012;SDS011;52783;50.502;8.190;2024-02-23T11:31:24;6.95;;;1.83;;
66012;SDS011;52783;50.502;8.190;2024-02-23T11:33:55;2.67;;;1.45;;
66012;SDS011;52783;50.502;8.190;2024-02-23T11:36:32;3.00;;;1.48;;
66012;SDS011;52783;50.502;8.190;2024-02-23T11:38:59;5.82;;;1.85;;
66012;SDS011;52783;50.502;8.190;2024-02-23T11:41:25;4.00;;;1.73;;
66012;SDS011;52783;50.502;8.190;2024-02-23T11:43:52;5.60;;;1.65;;
66012;SDS011;52783;50.502;8.190;2024-02-23T11:46:20;5.38;;;1.67;;
66012;SDS011;52783;50.502;8.190;2024-02-23T11:48:47;3.08;;;1.10;;
66012;SDS011;52783;50.502;8.190;2024-02-23T11:51:18;2.83;;;1.33;;
66012;SDS011;52783;50.502;8.190;2024-02-23T11:53:47;4.00;;;1.50;;
66012;SDS011;52783;50.502;8.190;2024-02-23T11:56:14;8.50;;;1.80;;
66012;SDS011;52783;50.502;8.190;2024-02-23T11:58:40;5.22;;;1.05;;
66012;SDS011;52783;50.502;8.190;2024-02-23T12:01:06;6.90;;;1.80;;
66012;SDS011;52783;50.502;8.190;2024-02-23T12:03:32;5.65;;;1.88;;
66012;SDS011;52783;50.502;8.190;2024-02-23T12:05:58;3.88;;;1.50;;
66012;SDS011;52783;50.502;8.190;2024-02-23T12:08:25;3.67;;;1.30;;
66012;SDS011;52783;50.502;8.190;2024-02-23T12:10:52;3.28;;;1.50;;
66012;SDS011;52783;50.502;8.190;2024-02-23T12:13:19;5.85;;;1.40;;
66012;SDS011;52783;50.502;8.190;2024-02-23T12:15:44;2.55;;;1.30;;
66012;SDS011;52783;50.502;8.190;2024-02-23T12:18:10;5.05;;;2.00;;
66012;SDS011;52783;50.502;8.190;2024-02-23T12:20:36;2.33;;;1.42;;
66012;SDS011;52783;50.502;8.190;2024-02-23T12:23:02;2.13;;;1.60;;
66012;SDS011;52783;50.502;8.190;2024-02-23T12:25:27;3.30;;;1.42;;
66012;SDS011;52783;50.502;8.190;2024-02-23T12:27:53;4.78;;;1.88;;
66012;SDS011;52783;50.502;8.190;2024-02-23T12:30:20;4.57;;;1.90;;
66012;SDS011;52783;50.502;8.190;2024-02-23T12:32:46;6.53;;;1.60;;
66012;SDS011;52783;50.502;8.190;2024-02-23T12:35:12;3.30;;;1.77;;
66012;SDS011;52783;50.502;8.190;2024-02-23T12:37:37;4.18;;;1.42;;
66012;SDS011;52783;50.502;8.190;2024-02-23T12:40:04;3.95;;;1.83;;
66012;SDS011;52783;50.502;8.190;2024-02-23T12:42:30;8.02;;;1.63;;
66012;SDS011;52783;50.502;8.190;2024-02-23T12:44:56;4.53;;;1.73;;
66012;SDS011;52783;50.502;8.190;2024-02-23T12:47:21;5.28;;;1.70;;
66012;SDS011;52783;50.502;8.190;2024-02-23T12:49:47;5.43;;;1.70;;
66012;SDS011;52783;50.502;8.190;2024-02-23T12:52:12;3.75;;;1.48;;
66012;SDS011;52783;50.502;8.190;2024-02-23T12:54:38;5.18;;;1.60;;
66012;SDS011;52783;50.502;8.190;2024-02-23T12:57:03;3.70;;;1.33;;
66012;SDS011;52783;50.502;8.190;2024-02-23T12:59:30;3.92;;;1.67;;
66012;SDS011;52783;50.502;8.190;2024-02-23T13:01:55;2.83;;;1.27;;
66012;SDS011;52783;50.502;8.190;2024-02-23T13:04:21;6.50;;;2.40;;
66012;SDS011;52783;50.502;8.190;2024-02-23T13:06:46;4.43;;;1.63;;
66012;SDS011;52783;50.502;8.190;2024-02-23T13:09:12;2.85;;;1.50;;
66012;SDS011;52783;50.502;8.190;2024-02-23T13:11:39;3.58;;;1.67;;
66012;SDS011;52783;50.502;8.190;2024-02-23T13:14:05;6.35;;;1.85;;
66012;SDS011;52783;50.502;8.190;2024-02-23T13:16:31;4.38;;;1.13;;
66012;SDS011;52783;50.502;8.190;2024-02-23T13:18:56;4.90;;;1.58;;
66012;SDS011;52783;50.502;8.190;2024-02-23T13:21:22;3.13;;;1.27;;
66012;SDS011;52783;50.502;8.190;2024-02-23T13:23:49;1.58;;;1.13;;
66012;SDS011;52783;50.502;8.190;2024-02-23T13:26:14;3.08;;;1.10;;
66012;SDS011;52783;50.502;8.190;2024-02-23T13:28:43;5.22;;;1.95;;
66012;SDS011;52783;50.502;8.190;2024-02-23T13:31:09;3.33;;;1.15;;
66012;SDS011;52783;50.502;8.190;2024-02-23T13:33:35;4.75;;;1.60;;
66012;SDS011;52783;50.502;8.190;2024-02-23T13:36:00;2.63;;;1.20;;
66012;SDS011;52783;50.502;8.190;2024-02-23T13:38:26;1.85;;;1.38;;
66012;SDS011;52783;50.502;8.190;2024-02-23T13:40:52;3.03;;;1.40;;
66012;SDS011;52783;50.502;8.190;2024-02-23T13:43:17;4.25;;;1.77;;
66012;SDS011;52783;50.502;8.190;2024-02-23T13:45:49;3.88;;;1.25;;
66012;SDS011;52783;50.502;8.190;2024-02-23T13:48:16;3.00;;;1.10;;
66012;SDS011;52783;50.502;8.190;2024-02-23T13:50:43;5.00;;;1.10;;
66012;SDS011;52783;50.502;8.190;2024-02-23T13:53:11;5.18;;;1.50;;
66012;SDS011;52783;50.502;8.190;2024-02-23T13:55:37;6.28;;;1.50;;
66012;SDS011;52783;50.502;8.190;2024-02-23T13:58:03;5.72;;;1.40;;
66012;SDS011;52783;50.502;8.190;2024-02-23T14:00:29;6.22;;;1.83;;
66012;SDS011;52783;50.502;8.190;2024-02-23T14:02:54;5.70;;;1.48;;
66012;SDS011;52783;50.502;8.190;2024-02-23T14:05:20;6.55;;;1.70;;
66012;SDS011;52783;50.502;8.190;2024-02-23T14:07:46;5.40;;;1.63;;
66012;SDS011;52783;50.502;8.190;2024-02-23T14:10:13;5.25;;;1.25;;
66012;SDS011;52783;50.502;8.190;2024-02-23T14:12:39;3.50;;;1.15;;
66012;SDS011;52783;50.502;8.190;2024-02-23T14:15:05;4.15;;;1.10;;
66012;SDS011;52783;50.502;8.190;2024-02-23T14:17:31;6.03;;;1.63;;
66012;SDS011;52783;50.502;8.190;2024-02-23T14:19:57;2.53;;;1.67;;
66012;SDS011;52783;50.502;8.190;2024-02-23T14:22:22;3.15;;;1.20;;
66012;SDS011;52783;50.502;8.190;2024-02-23T14:24:48;2.60;;;1.30;;
66012;SDS011;52783;50.502;8.190;2024-02-23T14:27:14;4.22;;;1.40;;
66012;SDS011;52783;50.502;8.190;2024-02-23T14:29:39;5.10;;;1.38;;
66012;SDS011;52783;50.502;8.190;2024-02-23T14:32:05;6.55;;;1.77;;
66012;SDS011;52783;50.502;8.190;2024-02-23T14:34:30;4.80;;;1.52;;
66012;SDS011;52783;50.502;8.190;2024-02-23T14:36:58;5.03;;;1.48;;
66012;SDS011;52783;50.502;8.190;2024-02-23T14:39:24;4.63;;;1.42;;
66012;SDS011;52783;50.502;8.190;2024-02-23T14:41:49;5.70;;;1.70;;